sensor_id;sensor_type;location;lat;lon;timestamp;P1;durP1;ratioP1;P2;durP2;ratioP2
66087;SDS011;52872;52.994;6.940;2022-10-16T00:01:31;8.65;;;2.47;;
66087;SDS011;52872;52.994;6.940;2022-10-16T00:03:58;4.63;;;2.58;;
66087;SDS011;52872;52.994;6.940;2022-10-16T00:06:28;5.07;;;2.55;;
66087;SDS011;52872;52.994;6.940;2022-10-16T00:08:55;10.45;;;2.90;;
66087;SDS011;52872;52.994;6.940;2022-10-16T00:11:29;8.95;;;2.47;;
66087;SDS011;52872;52.994;6.940;2022-10-16T00:14:03;4.72;;;2.50;;
66087;SDS011;52872;52.994;6.940;2022-10-16T00:16:33;6.10;;;2.47;;
66087;SDS011;52872;52.994;6.940;2022-10-16T00:19:01;5.85;;;2.50;;
66087;SDS011;52872;52.994;6.940;2022-10-16T00:21:28;5.78;;;2.33;;
66087;SDS011;52872;52.994;6.940;2022-10-16T00:23:58;5.82;;;2.47;;
66087;SDS011;52872;52.994;6.940;2022-10-16T00:26:28;3.47;;;2.10;;
66087;SDS011;52872;52.994;6.940;2022-10-16T00:28:56;4.18;;;2.17;;
66087;SDS011;52872;52.994;6.940;2022-10-16T00:31:23;5.80;;;2.58;;
66087;SDS011;52872;52.994;6.940;2022-10-16T00:33:50;7.32;;;2.33;;
66087;SDS011;52872;52.994;6.940;2022-10-16T00:36:18;5.40;;;2.60;;
66087;SDS011;52872;52.994;6.940;2022-10-16T00:38:47;6.75;;;2.88;;
66087;SDS011;52872;52.994;6.940;2022-10-16T00:41:19;7.00;;;2.50;;
66087;SDS011;52872;52.994;6.940;2022-10-16T00:43:48;5.82;;;2.10;;
66087;SDS011;52872;52.994;6.940;2022-10-16T00:46:19;6.30;;;2.35;;
66087;SDS011;52872;52.994;6.940;2022-10-16T00:48:52;5.35;;;2.65;;
66087;SDS011;52872;52.994;6.940;2022-10-16T00:51:33;4.28;;;2.28;;
66087;SDS011;52872;52.994;6.940;2022-10-16T00:54:25;4.07;;;2.22;;
66087;SDS011;52872;52.994;6.940;2022-10-16T00:56:54;6.50;;;2.10;;
66087;SDS011;52872;52.994;6.940;2022-10-16T00:59:25;4.00;;;2.22;;
66087;SDS011;52872;52.994;6.940;2022-10-16T01:02:02;3.95;;;2.25;;
66087;SDS011;52872;52.994;6.940;2022-10-16T01:04:32;6.63;;;1.80;;
66087;SDS011;52872;52.994;6.940;2022-10-16T01:10:02;4.95;;;2.80;;
66087;SDS011;52872;52.994;6.940;2022-10-16T01:12:43;3.00;;;2.15;;
66087;SDS011;52872;52.994;6.940;2022-10-16T01:16:04;5.85;;;1.95;;
66087;SDS011;52872;52.994;6.940;2022-10-16T01:20:57;8.98;;;2.53;;
66087;SDS011;52872;52.994;6.940;2022-10-16T01:23:51;6.63;;;2.47;;
66087;SDS011;52872;52.994;6.940;2022-10-16T01:26:48;4.05;;;2.13;;
66087;SDS011;52872;52.994;6.940;2022-10-16T01:29:48;4.90;;;2.50;;
66087;SDS011;52872;52.994;6.940;2022-10-16T01:35:00;5.85;;;2.55;;
66087;SDS011;52872;52.994;6.940;2022-10-16T01:37:40;5.97;;;2.10;;
66087;SDS011;52872;52.994;6.940;2022-10-16T01:40:17;5.53;;;2.85;;
66087;SDS011;52872;52.994;6.940;2022-10-16T01:42:48;7.50;;;2.65;;
66087;SDS011;52872;52.994;6.940;2022-10-16T01:45:21;3.78;;;2.50;;
66087;SDS011;52872;52.994;6.940;2022-10-16T01:47:49;6.55;;;3.10;;
66087;SDS011;52872;52.994;6.940;2022-10-16T01:50:18;6.68;;;2.80;;
66087;SDS011;52872;52.994;6.940;2022-10-16T01:52:47;5.20;;;2.85;;
66087;SDS011;52872;52.994;6.940;2022-10-16T01:55:19;6.07;;;2.60;;
66087;SDS011;52872;52.994;6.940;2022-10-16T01:57:50;4.60;;;3.08;;
66087;SDS011;52872;52.994;6.940;2022-10-16T02:00:20;6.82;;;3.13;;
66087;SDS011;52872;52.994;6.940;2022-10-16T02:02:49;6.85;;;3.10;;
66087;SDS011;52872;52.994;6.940;2022-10-16T02:05:30;4.45;;;2.80;;
66087;SDS011;52872;52.994;6.940;2022-10-16T02:08:05;11.10;;;3.47;;
66087;SDS011;52872;52.994;6.940;2022-10-16T02:10:32;5.75;;;3.05;;
66087;SDS011;52872;52.994;6.940;2022-10-16T02:13:06;5.13;;;2.72;;
66087;SDS011;52872;52.994;6.940;2022-10-16T02:15:38;6.00;;;2.47;;
66087;SDS011;52872;52.994;6.940;2022-10-16T02:18:05;2.90;;;2.45;;
66087;SDS011;52872;52.994;6.940;2022-10-16T02:20:38;3.63;;;2.45;;
66087;SDS011;52872;52.994;6.940;2022-10-16T02:23:17;3.70;;;2.17;;
66087;SDS011;52872;52.994;6.940;2022-10-16T02:25:50;3.83;;;2.42;;
66087;SDS011;52872;52.994;6.940;2022-10-16T02:28:22;3.70;;;2.47;;
66087;SDS011;52872;52.994;6.940;2022-10-16T02:33:25;6.70;;;2.67;;
66087;SDS011;52872;52.994;6.940;2022-10-16T02:35:54;7.65;;;2.78;;
66087;SDS011;52872;52.994;6.940;2022-10-16T02:38:22;6.82;;;2.60;;
66087;SDS011;52872;52.994;6.940;2022-10-16T02:40:49;9.45;;;2.97;;
66087;SDS011;52872;52.994;6.940;2022-10-16T02:43:17;3.88;;;2.47;;
66087;SDS011;52872;52.994;6.940;2022-10-16T02:45:44;5.97;;;2.75;;
66087;SDS011;52872;52.994;6.940;2022-10-16T02:48:11;6.28;;;2.65;;
66087;SDS011;52872;52.994;6.940;2022-10-16T02:50:38;5.65;;;2.85;;
66087;SDS011;52872;52.994;6.940;2022-10-16T02:53:05;5.68;;;2.88;;
66087;SDS011;52872;52.994;6.940;2022-10-16T02:55:32;3.85;;;2.42;;
66087;SDS011;52872;52.994;6.940;2022-10-16T02:57:59;3.80;;;2.80;;
66087;SDS011;52872;52.994;6.940;2022-10-16T03:00:26;3.97;;;2.33;;
66087;SDS011;52872;52.994;6.940;2022-10-16T03:02:53;4.85;;;2.78;;
66087;SDS011;52872;52.994;6.940;2022-10-16T03:05:20;5.70;;;2.42;;
66087;SDS011;52872;52.994;6.940;2022-10-16T03:07:51;3.85;;;2.55;;
66087;SDS011;52872;52.994;6.940;2022-10-16T03:10:19;5.93;;;2.45;;
66087;SDS011;52872;52.994;6.940;2022-10-16T03:12:46;2.92;;;2.53;;
66087;SDS011;52872;52.994;6.940;2022-10-16T03:15:13;4.68;;;2.60;;
66087;SDS011;52872;52.994;6.940;2022-10-16T03:17:40;4.38;;;2.47;;
66087;SDS011;52872;52.994;6.940;2022-10-16T03:20:07;4.75;;;2.65;;
66087;SDS011;52872;52.994;6.940;2022-10-16T03:22:34;3.78;;;2.55;;
66087;SDS011;52872;52.994;6.940;2022-10-16T03:25:01;5.80;;;2.60;;
66087;SDS011;52872;52.994;6.940;2022-10-16T03:27:28;4.72;;;2.70;;
66087;SDS011;52872;52.994;6.940;2022-10-16T03:29:55;8.77;;;2.90;;
66087;SDS011;52872;52.994;6.940;2022-10-16T03:32:22;4.32;;;2.83;;
66087;SDS011;52872;52.994;6.940;2022-10-16T03:34:51;3.65;;;2.15;;
66087;SDS011;52872;52.994;6.940;2022-10-16T03:37:20;5.22;;;2.22;;
66087;SDS011;52872;52.994;6.940;2022-10-16T03:39:47;4.47;;;2.42;;
66087;SDS011;52872;52.994;6.940;2022-10-16T03:42:14;4.97;;;2.70;;
66087;SDS011;52872;52.994;6.940;2022-10-16T03:44:41;3.30;;;2.65;;
66087;SDS011;52872;52.994;6.940;2022-10-16T03:47:08;3.35;;;2.30;;
66087;SDS011;52872;52.994;6.940;2022-10-16T03:49:35;3.05;;;2.40;;
66087;SDS011;52872;52.994;6.940;2022-10-16T03:52:02;4.53;;;2.35;;
66087;SDS011;52872;52.994;6.940;2022-10-16T03:54:28;4.63;;;2.53;;
66087;SDS011;52872;52.994;6.940;2022-10-16T03:56:55;3.00;;;2.45;;
66087;SDS011;52872;52.994;6.940;2022-10-16T03:59:22;4.90;;;2.58;;
66087;SDS011;52872;52.994;6.940;2022-10-16T04:01:49;6.35;;;2.35;;
66087;SDS011;52872;52.994;6.940;2022-10-16T04:04:16;3.63;;;2.65;;
66087;SDS011;52872;52.994;6.940;2022-10-16T04:06:43;3.10;;;2.22;;
66087;SDS011;52872;52.994;6.940;2022-10-16T04:09:10;3.63;;;2.30;;
66087;SDS011;52872;52.994;6.940;2022-10-16T04:11:37;3.05;;;2.75;;
66087;SDS011;52872;52.994;6.940;2022-10-16T04:14:05;2.70;;;2.35;;
66087;SDS011;52872;52.994;6.940;2022-10-16T04:16:32;4.65;;;2.42;;
66087;SDS011;52872;52.994;6.940;2022-10-16T04:18:58;3.03;;;2.65;;
66087;SDS011;52872;52.994;6.940;2022-10-16T04:21:25;4.72;;;2.70;;
66087;SDS011;52872;52.994;6.940;2022-10-16T04:23:52;4.70;;;2.85;;
66087;SDS011;52872;52.994;6.940;2022-10-16T04:26:20;3.75;;;2.72;;
66087;SDS011;52872;52.994;6.940;2022-10-16T04:28:47;4.40;;;2.70;;
66087;SDS011;52872;52.994;6.940;2022-10-16T04:31:14;2.70;;;2.50;;
66087;SDS011;52872;52.994;6.940;2022-10-16T04:33:43;5.07;;;2.80;;
66087;SDS011;52872;52.994;6.940;2022-10-16T04:36:10;4.72;;;2.88;;
66087;SDS011;52872;52.994;6.940;2022-10-16T04:38:37;4.30;;;2.42;;
66087;SDS011;52872;52.994;6.940;2022-10-16T04:41:06;4.85;;;2.90;;
66087;SDS011;52872;52.994;6.940;2022-10-16T04:43:33;5.22;;;2.97;;
66087;SDS011;52872;52.994;6.940;2022-10-16T04:46:00;5.68;;;3.13;;
66087;SDS011;52872;52.994;6.940;2022-10-16T04:48:28;4.10;;;2.80;;
66087;SDS011;52872;52.994;6.940;2022-10-16T04:50:55;3.50;;;2.60;;
66087;SDS011;52872;52.994;6.940;2022-10-16T04:53:21;4.18;;;2.85;;
66087;SDS011;52872;52.994;6.940;2022-10-16T04:55:49;4.68;;;3.03;;
66087;SDS011;52872;52.994;6.940;2022-10-16T04:58:16;5.68;;;3.22;;
66087;SDS011;52872;52.994;6.940;2022-10-16T05:00:44;3.88;;;3.00;;
66087;SDS011;52872;52.994;6.940;2022-10-16T05:03:12;5.30;;;3.10;;
66087;SDS011;52872;52.994;6.940;2022-10-16T05:05:43;4.57;;;3.08;;
66087;SDS011;52872;52.994;6.940;2022-10-16T05:08:14;3.92;;;3.08;;
66087;SDS011;52872;52.994;6.940;2022-10-16T05:10:42;5.75;;;3.10;;
66087;SDS011;52872;52.994;6.940;2022-10-16T05:13:10;5.13;;;3.60;;
66087;SDS011;52872;52.994;6.940;2022-10-16T05:15:37;5.32;;;3.15;;
66087;SDS011;52872;52.994;6.940;2022-10-16T05:18:04;3.75;;;2.92;;
66087;SDS011;52872;52.994;6.940;2022-10-16T05:20:31;4.90;;;3.33;;
66087;SDS011;52872;52.994;6.940;2022-10-16T05:22:58;4.88;;;3.22;;
66087;SDS011;52872;52.994;6.940;2022-10-16T05:25:25;6.80;;;3.50;;
66087;SDS011;52872;52.994;6.940;2022-10-16T05:27:52;4.05;;;3.05;;
66087;SDS011;52872;52.994;6.940;2022-10-16T05:30:19;6.15;;;3.63;;
66087;SDS011;52872;52.994;6.940;2022-10-16T05:32:47;4.00;;;3.22;;
66087;SDS011;52872;52.994;6.940;2022-10-16T05:35:16;3.88;;;3.10;;
66087;SDS011;52872;52.994;6.940;2022-10-16T05:37:43;3.97;;;3.47;;
66087;SDS011;52872;52.994;6.940;2022-10-16T05:40:10;9.32;;;3.80;;
66087;SDS011;52872;52.994;6.940;2022-10-16T05:42:39;4.63;;;3.10;;
66087;SDS011;52872;52.994;6.940;2022-10-16T05:45:07;4.78;;;3.00;;
66087;SDS011;52872;52.994;6.940;2022-10-16T05:47:36;4.57;;;3.05;;
66087;SDS011;52872;52.994;6.940;2022-10-16T05:50:03;5.65;;;3.42;;
66087;SDS011;52872;52.994;6.940;2022-10-16T05:52:31;6.38;;;3.20;;
66087;SDS011;52872;52.994;6.940;2022-10-16T05:54:58;3.47;;;3.17;;
66087;SDS011;52872;52.994;6.940;2022-10-16T05:57:24;4.85;;;3.60;;
66087;SDS011;52872;52.994;6.940;2022-10-16T05:59:52;6.50;;;3.30;;
66087;SDS011;52872;52.994;6.940;2022-10-16T06:02:19;4.65;;;3.50;;
66087;SDS011;52872;52.994;6.940;2022-10-16T06:04:45;4.20;;;3.70;;
66087;SDS011;52872;52.994;6.940;2022-10-16T06:07:12;4.53;;;3.42;;
66087;SDS011;52872;52.994;6.940;2022-10-16T06:09:39;3.50;;;3.13;;
66087;SDS011;52872;52.994;6.940;2022-10-16T06:12:06;5.20;;;3.53;;
66087;SDS011;52872;52.994;6.940;2022-10-16T06:14:33;5.10;;;3.15;;
66087;SDS011;52872;52.994;6.940;2022-10-16T06:17:00;5.93;;;3.45;;
66087;SDS011;52872;52.994;6.940;2022-10-16T06:19:27;5.28;;;3.45;;
66087;SDS011;52872;52.994;6.940;2022-10-16T06:21:54;3.22;;;3.03;;
66087;SDS011;52872;52.994;6.940;2022-10-16T06:24:21;5.32;;;3.38;;
66087;SDS011;52872;52.994;6.940;2022-10-16T06:26:48;5.93;;;3.67;;
66087;SDS011;52872;52.994;6.940;2022-10-16T06:29:15;4.30;;;3.30;;
66087;SDS011;52872;52.994;6.940;2022-10-16T06:31:42;5.40;;;3.28;;
66087;SDS011;52872;52.994;6.940;2022-10-16T06:34:09;5.28;;;2.97;;
66087;SDS011;52872;52.994;6.940;2022-10-16T06:36:37;3.80;;;2.65;;
66087;SDS011;52872;52.994;6.940;2022-10-16T06:39:05;5.18;;;2.75;;
66087;SDS011;52872;52.994;6.940;2022-10-16T06:41:33;4.18;;;2.70;;
66087;SDS011;52872;52.994;6.940;2022-10-16T06:44:13;3.85;;;2.70;;
66087;SDS011;52872;52.994;6.940;2022-10-16T06:46:40;5.03;;;2.60;;
66087;SDS011;52872;52.994;6.940;2022-10-16T06:49:07;5.22;;;2.72;;
66087;SDS011;52872;52.994;6.940;2022-10-16T06:51:34;5.70;;;2.75;;
66087;SDS011;52872;52.994;6.940;2022-10-16T06:54:04;4.93;;;2.38;;
66087;SDS011;52872;52.994;6.940;2022-10-16T06:56:31;2.80;;;2.38;;
66087;SDS011;52872;52.994;6.940;2022-10-16T06:58:59;2.90;;;2.03;;
66087;SDS011;52872;52.994;6.940;2022-10-16T07:01:26;3.85;;;2.28;;
66087;SDS011;52872;52.994;6.940;2022-10-16T07:03:53;4.60;;;2.50;;
66087;SDS011;52872;52.994;6.940;2022-10-16T07:06:23;2.45;;;2.20;;
66087;SDS011;52872;52.994;6.940;2022-10-16T07:08:52;5.18;;;2.50;;
66087;SDS011;52872;52.994;6.940;2022-10-16T07:11:20;3.55;;;2.17;;
66087;SDS011;52872;52.994;6.940;2022-10-16T07:13:48;5.03;;;2.88;;
66087;SDS011;52872;52.994;6.940;2022-10-16T07:16:19;2.50;;;2.17;;
66087;SDS011;52872;52.994;6.940;2022-10-16T07:18:48;6.72;;;2.50;;
66087;SDS011;52872;52.994;6.940;2022-10-16T07:21:17;3.17;;;2.20;;
66087;SDS011;52872;52.994;6.940;2022-10-16T07:23:49;3.35;;;2.20;;
66087;SDS011;52872;52.994;6.940;2022-10-16T07:26:17;5.32;;;1.90;;
66087;SDS011;52872;52.994;6.940;2022-10-16T07:28:44;4.38;;;2.30;;
66087;SDS011;52872;52.994;6.940;2022-10-16T07:31:12;2.55;;;1.85;;
66087;SDS011;52872;52.994;6.940;2022-10-16T07:33:41;3.78;;;2.15;;
66087;SDS011;52872;52.994;6.940;2022-10-16T07:36:11;5.43;;;2.28;;
66087;SDS011;52872;52.994;6.940;2022-10-16T07:38:41;3.45;;;2.47;;
66087;SDS011;52872;52.994;6.940;2022-10-16T07:41:10;3.83;;;2.33;;
66087;SDS011;52872;52.994;6.940;2022-10-16T07:43:38;4.70;;;2.17;;
66087;SDS011;52872;52.994;6.940;2022-10-16T07:46:06;3.80;;;2.55;;
66087;SDS011;52872;52.994;6.940;2022-10-16T07:48:33;3.28;;;2.88;;
66087;SDS011;52872;52.994;6.940;2022-10-16T07:51:01;3.78;;;2.55;;
66087;SDS011;52872;52.994;6.940;2022-10-16T07:53:30;2.30;;;2.05;;
66087;SDS011;52872;52.994;6.940;2022-10-16T07:55:58;4.03;;;2.63;;
66087;SDS011;52872;52.994;6.940;2022-10-16T07:58:26;5.68;;;3.03;;
66087;SDS011;52872;52.994;6.940;2022-10-16T08:00:56;3.70;;;2.22;;
66087;SDS011;52872;52.994;6.940;2022-10-16T08:03:24;4.38;;;2.10;;
66087;SDS011;52872;52.994;6.940;2022-10-16T08:05:51;4.32;;;2.35;;
66087;SDS011;52872;52.994;6.940;2022-10-16T08:08:19;6.18;;;2.47;;
66087;SDS011;52872;52.994;6.940;2022-10-16T08:10:45;3.35;;;1.85;;
66087;SDS011;52872;52.994;6.940;2022-10-16T08:13:12;2.83;;;2.35;;
66087;SDS011;52872;52.994;6.940;2022-10-16T08:15:41;3.72;;;2.25;;
66087;SDS011;52872;52.994;6.940;2022-10-16T08:18:09;3.15;;;1.80;;
66087;SDS011;52872;52.994;6.940;2022-10-16T08:20:38;5.15;;;2.08;;
66087;SDS011;52872;52.994;6.940;2022-10-16T08:23:05;5.25;;;2.08;;
66087;SDS011;52872;52.994;6.940;2022-10-16T08:25:36;3.53;;;2.28;;
66087;SDS011;52872;52.994;6.940;2022-10-16T08:28:04;4.95;;;2.95;;
66087;SDS011;52872;52.994;6.940;2022-10-16T08:30:32;3.03;;;1.75;;
66087;SDS011;52872;52.994;6.940;2022-10-16T08:33:00;3.50;;;2.10;;
66087;SDS011;52872;52.994;6.940;2022-10-16T08:35:27;3.35;;;2.03;;
66087;SDS011;52872;52.994;6.940;2022-10-16T08:37:54;5.07;;;1.75;;
66087;SDS011;52872;52.994;6.940;2022-10-16T08:40:29;2.63;;;1.98;;
66087;SDS011;52872;52.994;6.940;2022-10-16T08:48:20;4.70;;;1.70;;
66087;SDS011;52872;52.994;6.940;2022-10-16T08:51:07;4.32;;;1.58;;
66087;SDS011;52872;52.994;6.940;2022-10-16T08:53:41;3.35;;;1.50;;
66087;SDS011;52872;52.994;6.940;2022-10-16T08:56:15;3.15;;;1.50;;
66087;SDS011;52872;52.994;6.940;2022-10-16T08:58:45;3.38;;;1.60;;
66087;SDS011;52872;52.994;6.940;2022-10-16T09:01:18;3.88;;;2.22;;
66087;SDS011;52872;52.994;6.940;2022-10-16T09:12:04;3.57;;;2.13;;
66087;SDS011;52872;52.994;6.940;2022-10-16T09:20:44;1.92;;;1.50;;
66087;SDS011;52872;52.994;6.940;2022-10-16T09:23:19;3.40;;;2.03;;
66087;SDS011;52872;52.994;6.940;2022-10-16T09:25:51;2.95;;;1.58;;
66087;SDS011;52872;52.994;6.940;2022-10-16T09:28:20;3.80;;;1.92;;
66087;SDS011;52872;52.994;6.940;2022-10-16T09:30:47;4.75;;;2.00;;
66087;SDS011;52872;52.994;6.940;2022-10-16T09:33:17;5.95;;;2.38;;
66087;SDS011;52872;52.994;6.940;2022-10-16T09:35:47;3.85;;;2.00;;
66087;SDS011;52872;52.994;6.940;2022-10-16T09:40:52;4.28;;;2.00;;
66087;SDS011;52872;52.994;6.940;2022-10-16T09:46:04;4.40;;;1.88;;
66087;SDS011;52872;52.994;6.940;2022-10-16T09:48:50;3.97;;;1.88;;
66087;SDS011;52872;52.994;6.940;2022-10-16T09:53:53;8.75;;;2.28;;
66087;SDS011;52872;52.994;6.940;2022-10-16T09:56:26;5.95;;;2.47;;
66087;SDS011;52872;52.994;6.940;2022-10-16T09:59:12;4.78;;;2.00;;
66087;SDS011;52872;52.994;6.940;2022-10-16T10:01:40;6.68;;;2.22;;
66087;SDS011;52872;52.994;6.940;2022-10-16T10:04:08;8.20;;;1.77;;
66087;SDS011;52872;52.994;6.940;2022-10-16T10:06:37;4.80;;;1.75;;
66087;SDS011;52872;52.994;6.940;2022-10-16T10:11:57;4.25;;;1.95;;
66087;SDS011;52872;52.994;6.940;2022-10-16T10:14:42;7.88;;;1.80;;
66087;SDS011;52872;52.994;6.940;2022-10-16T10:17:22;5.57;;;1.75;;
66087;SDS011;52872;52.994;6.940;2022-10-16T10:19:55;5.60;;;1.80;;
66087;SDS011;52872;52.994;6.940;2022-10-16T10:22:29;9.60;;;2.45;;
66087;SDS011;52872;52.994;6.940;2022-10-16T10:30:54;6.35;;;1.77;;
66087;SDS011;52872;52.994;6.940;2022-10-16T10:38:58;10.40;;;2.17;;
66087;SDS011;52872;52.994;6.940;2022-10-16T10:46:57;10.05;;;2.08;;
66087;SDS011;52872;52.994;6.940;2022-10-16T10:53:06;8.77;;;2.50;;
66087;SDS011;52872;52.994;6.940;2022-10-16T11:06:12;9.13;;;2.70;;
66087;SDS011;52872;52.994;6.940;2022-10-16T11:08:48;7.18;;;2.53;;
66087;SDS011;52872;52.994;6.940;2022-10-16T11:11:32;6.90;;;2.00;;
66087;SDS011;52872;52.994;6.940;2022-10-16T11:14:21;6.97;;;1.95;;
66087;SDS011;52872;52.994;6.940;2022-10-16T11:16:56;5.78;;;2.53;;
66087;SDS011;52872;52.994;6.940;2022-10-16T11:27:36;10.00;;;2.55;;
66087;SDS011;52872;52.994;6.940;2022-10-16T11:30:25;8.63;;;2.08;;
66087;SDS011;52872;52.994;6.940;2022-10-16T11:38:24;5.38;;;2.53;;
66087;SDS011;52872;52.994;6.940;2022-10-16T11:41:03;6.32;;;2.00;;
66087;SDS011;52872;52.994;6.940;2022-10-16T11:43:53;7.43;;;2.10;;
66087;SDS011;52872;52.994;6.940;2022-10-16T11:46:32;5.05;;;1.77;;
66087;SDS011;52872;52.994;6.940;2022-10-16T11:49:13;9.52;;;2.13;;
66087;SDS011;52872;52.994;6.940;2022-10-16T11:51:59;6.43;;;1.80;;
66087;SDS011;52872;52.994;6.940;2022-10-16T11:54:54;7.38;;;2.08;;
66087;SDS011;52872;52.994;6.940;2022-10-16T11:57:29;9.80;;;2.13;;
66087;SDS011;52872;52.994;6.940;2022-10-16T12:00:03;10.25;;;3.33;;
66087;SDS011;52872;52.994;6.940;2022-10-16T12:02:45;6.72;;;2.20;;
66087;SDS011;52872;52.994;6.940;2022-10-16T12:05:30;9.45;;;2.17;;
66087;SDS011;52872;52.994;6.940;2022-10-16T12:08:12;6.25;;;2.72;;
66087;SDS011;52872;52.994;6.940;2022-10-16T12:10:41;6.30;;;2.35;;
66087;SDS011;52872;52.994;6.940;2022-10-16T12:18:44;4.75;;;2.20;;
66087;SDS011;52872;52.994;6.940;2022-10-16T12:21:13;8.73;;;2.60;;
66087;SDS011;52872;52.994;6.940;2022-10-16T12:23:49;9.70;;;2.17;;
66087;SDS011;52872;52.994;6.940;2022-10-16T12:26:27;8.65;;;2.35;;
66087;SDS011;52872;52.994;6.940;2022-10-16T12:28:56;8.80;;;2.40;;
66087;SDS011;52872;52.994;6.940;2022-10-16T12:31:46;8.40;;;1.80;;
66087;SDS011;52872;52.994;6.940;2022-10-16T12:37:10;7.90;;;2.38;;
66087;SDS011;52872;52.994;6.940;2022-10-16T12:39:46;4.57;;;1.40;;
66087;SDS011;52872;52.994;6.940;2022-10-16T12:44:54;10.70;;;2.30;;
66087;SDS011;52872;52.994;6.940;2022-10-16T12:49:58;11.68;;;7.13;;
66087;SDS011;52872;52.994;6.940;2022-10-16T12:52:38;6.63;;;1.98;;
66087;SDS011;52872;52.994;6.940;2022-10-16T12:55:11;7.90;;;1.90;;
66087;SDS011;52872;52.994;6.940;2022-10-16T12:57:51;5.72;;;1.42;;
66087;SDS011;52872;52.994;6.940;2022-10-16T13:03:29;7.97;;;2.65;;
66087;SDS011;52872;52.994;6.940;2022-10-16T13:22:17;7.25;;;1.75;;
66087;SDS011;52872;52.994;6.940;2022-10-16T13:30:29;10.00;;;2.20;;
66087;SDS011;52872;52.994;6.940;2022-10-16T13:33:02;7.03;;;2.13;;
66087;SDS011;52872;52.994;6.940;2022-10-16T13:35:48;6.35;;;2.35;;
66087;SDS011;52872;52.994;6.940;2022-10-16T13:38:18;7.68;;;1.70;;
66087;SDS011;52872;52.994;6.940;2022-10-16T13:40:57;7.03;;;1.80;;
66087;SDS011;52872;52.994;6.940;2022-10-16T13:44:07;6.50;;;2.58;;
66087;SDS011;52872;52.994;6.940;2022-10-16T13:46:25;6.17;;;2.40;;
66087;SDS011;52872;52.994;6.940;2022-10-16T13:48:56;4.97;;;1.50;;
66087;SDS011;52872;52.994;6.940;2022-10-16T13:51:23;6.97;;;1.90;;
66087;SDS011;52872;52.994;6.940;2022-10-16T13:53:51;7.45;;;2.13;;
66087;SDS011;52872;52.994;6.940;2022-10-16T13:56:19;8.77;;;2.42;;
66087;SDS011;52872;52.994;6.940;2022-10-16T14:01:59;10.27;;;1.90;;
66087;SDS011;52872;52.994;6.940;2022-10-16T14:04:32;5.82;;;2.20;;
66087;SDS011;52872;52.994;6.940;2022-10-16T14:06:59;8.57;;;1.92;;
66087;SDS011;52872;52.994;6.940;2022-10-16T14:09:27;7.38;;;1.65;;
66087;SDS011;52872;52.994;6.940;2022-10-16T14:12:00;5.63;;;1.38;;
66087;SDS011;52872;52.994;6.940;2022-10-16T14:14:32;7.47;;;1.95;;
66087;SDS011;52872;52.994;6.940;2022-10-16T14:17:05;5.18;;;1.60;;
66087;SDS011;52872;52.994;6.940;2022-10-16T14:22:19;6.93;;;2.15;;
66087;SDS011;52872;52.994;6.940;2022-10-16T14:24:51;7.35;;;1.85;;
66087;SDS011;52872;52.994;6.940;2022-10-16T14:30:33;4.97;;;1.58;;
66087;SDS011;52872;52.994;6.940;2022-10-16T14:32:57;7.22;;;2.08;;
66087;SDS011;52872;52.994;6.940;2022-10-16T14:35:27;9.00;;;2.78;;
66087;SDS011;52872;52.994;6.940;2022-10-16T14:38:03;10.90;;;3.03;;
66087;SDS011;52872;52.994;6.940;2022-10-16T14:40:32;8.38;;;1.70;;
66087;SDS011;52872;52.994;6.940;2022-10-16T14:43:01;7.43;;;2.63;;
66087;SDS011;52872;52.994;6.940;2022-10-16T14:45:30;8.45;;;1.90;;
66087;SDS011;52872;52.994;6.940;2022-10-16T14:48:03;10.40;;;2.05;;
66087;SDS011;52872;52.994;6.940;2022-10-16T14:50:42;5.27;;;1.57;;
66087;SDS011;52872;52.994;6.940;2022-10-16T14:53:12;8.25;;;2.00;;
66087;SDS011;52872;52.994;6.940;2022-10-16T14:55:39;8.23;;;1.75;;
66087;SDS011;52872;52.994;6.940;2022-10-16T14:58:26;6.00;;;2.45;;
66087;SDS011;52872;52.994;6.940;2022-10-16T15:00:53;7.53;;;2.20;;
66087;SDS011;52872;52.994;6.940;2022-10-16T15:03:22;8.68;;;2.05;;
66087;SDS011;52872;52.994;6.940;2022-10-16T15:05:49;6.90;;;2.20;;
66087;SDS011;52872;52.994;6.940;2022-10-16T15:08:16;10.38;;;3.22;;
66087;SDS011;52872;52.994;6.940;2022-10-16T15:10:43;6.22;;;2.10;;
66087;SDS011;52872;52.994;6.940;2022-10-16T15:13:13;7.22;;;2.40;;
66087;SDS011;52872;52.994;6.940;2022-10-16T15:15:44;8.30;;;3.28;;
66087;SDS011;52872;52.994;6.940;2022-10-16T15:18:12;6.57;;;2.03;;
66087;SDS011;52872;52.994;6.940;2022-10-16T15:20:41;7.35;;;2.30;;
66087;SDS011;52872;52.994;6.940;2022-10-16T15:23:15;9.60;;;2.08;;
66087;SDS011;52872;52.994;6.940;2022-10-16T15:25:49;9.00;;;2.15;;
66087;SDS011;52872;52.994;6.940;2022-10-16T15:28:17;8.02;;;2.00;;
66087;SDS011;52872;52.994;6.940;2022-10-16T15:30:45;7.85;;;2.17;;
66087;SDS011;52872;52.994;6.940;2022-10-16T15:33:16;8.95;;;2.45;;
66087;SDS011;52872;52.994;6.940;2022-10-16T15:35:49;6.63;;;1.88;;
66087;SDS011;52872;52.994;6.940;2022-10-16T15:38:17;10.20;;;2.45;;
66087;SDS011;52872;52.994;6.940;2022-10-16T15:40:46;7.25;;;2.05;;
66087;SDS011;52872;52.994;6.940;2022-10-16T15:43:14;6.82;;;2.58;;
66087;SDS011;52872;52.994;6.940;2022-10-16T15:45:41;8.52;;;2.38;;
66087;SDS011;52872;52.994;6.940;2022-10-16T15:48:10;7.18;;;2.30;;
66087;SDS011;52872;52.994;6.940;2022-10-16T15:50:38;6.28;;;2.85;;
66087;SDS011;52872;52.994;6.940;2022-10-16T15:53:06;7.60;;;2.75;;
66087;SDS011;52872;52.994;6.940;2022-10-16T15:55:33;6.10;;;2.20;;
66087;SDS011;52872;52.994;6.940;2022-10-16T15:58:02;12.00;;;3.58;;
66087;SDS011;52872;52.994;6.940;2022-10-16T16:00:29;6.95;;;2.78;;
66087;SDS011;52872;52.994;6.940;2022-10-16T16:02:56;9.48;;;2.42;;
66087;SDS011;52872;52.994;6.940;2022-10-16T16:05:23;6.70;;;3.00;;
66087;SDS011;52872;52.994;6.940;2022-10-16T16:07:50;6.97;;;2.60;;
66087;SDS011;52872;52.994;6.940;2022-10-16T16:10:17;12.98;;;2.75;;
66087;SDS011;52872;52.994;6.940;2022-10-16T16:12:47;5.25;;;2.63;;
66087;SDS011;52872;52.994;6.940;2022-10-16T16:15:19;9.07;;;2.58;;
66087;SDS011;52872;52.994;6.940;2022-10-16T16:17:47;13.05;;;3.58;;
66087;SDS011;52872;52.994;6.940;2022-10-16T16:20:15;7.28;;;2.75;;
66087;SDS011;52872;52.994;6.940;2022-10-16T16:22:42;13.48;;;2.78;;
66087;SDS011;52872;52.994;6.940;2022-10-16T16:25:09;9.50;;;3.47;;
66087;SDS011;52872;52.994;6.940;2022-10-16T16:27:36;11.05;;;5.70;;
66087;SDS011;52872;52.994;6.940;2022-10-16T16:30:09;10.20;;;5.18;;
66087;SDS011;52872;52.994;6.940;2022-10-16T16:32:40;14.32;;;7.07;;
66087;SDS011;52872;52.994;6.940;2022-10-16T16:35:08;15.63;;;7.25;;
66087;SDS011;52872;52.994;6.940;2022-10-16T16:37:35;11.77;;;5.47;;
66087;SDS011;52872;52.994;6.940;2022-10-16T16:40:02;30.35;;;17.40;;
66087;SDS011;52872;52.994;6.940;2022-10-16T16:42:30;34.13;;;19.17;;
66087;SDS011;52872;52.994;6.940;2022-10-16T16:44:57;22.98;;;11.10;;
66087;SDS011;52872;52.994;6.940;2022-10-16T16:47:24;23.95;;;13.05;;
66087;SDS011;52872;52.994;6.940;2022-10-16T16:49:51;15.73;;;8.88;;
66087;SDS011;52872;52.994;6.940;2022-10-16T16:52:18;11.75;;;5.78;;
66087;SDS011;52872;52.994;6.940;2022-10-16T16:54:46;9.18;;;3.85;;
66087;SDS011;52872;52.994;6.940;2022-10-16T16:57:18;12.18;;;3.80;;
66087;SDS011;52872;52.994;6.940;2022-10-16T16:59:46;9.35;;;4.75;;
66087;SDS011;52872;52.994;6.940;2022-10-16T17:02:13;10.45;;;3.47;;
66087;SDS011;52872;52.994;6.940;2022-10-16T17:04:40;13.45;;;7.32;;
66087;SDS011;52872;52.994;6.940;2022-10-16T17:07:07;10.80;;;7.03;;
66087;SDS011;52872;52.994;6.940;2022-10-16T17:09:34;15.35;;;8.15;;
66087;SDS011;52872;52.994;6.940;2022-10-16T17:12:01;6.38;;;3.30;;
66087;SDS011;52872;52.994;6.940;2022-10-16T17:14:28;10.68;;;4.22;;
66087;SDS011;52872;52.994;6.940;2022-10-16T17:16:55;9.30;;;4.10;;
66087;SDS011;52872;52.994;6.940;2022-10-16T17:19:22;9.52;;;3.88;;